Time;durP1;ratioP1;P1;durP2;ratioP2;P2;SDS_P1;SDS_P2;PMS_P1;PMS_P2;Temp;Humidity;BMP_temperature;BMP_pressure;BME280_temperature;BME280_humidity;BME280_pressure;Samples;Min_cycle;Max_cycle;Signal;HPM_P1;HPM_P2
2023/01/16 00:00:28;;;;;;;11.43;1.17;;;6.90;99.90;;;;;;5022606;28;20037;-66
2023/01/16 00:02:53;;;;;;;8.85;1.25;;;7.00;99.90;;;;;;5025087;28;20470;-66
2023/01/16 00:05:19;;;;;;;14.50;1.23;;;7.00;99.90;;;;;;5028172;28;20075;-66
2023/01/16 00:07:45;;;;;;;7.10;0.90;;;6.90;99.90;;;;;;5024562;28;20047;-66
2023/01/16 00:10:11;;;;;;;10.10;1.40;;;6.90;99.90;;;;;;5025849;28;20064;-66
2023/01/16 00:12:37;;;;;;;14.02;1.27;;;6.80;99.90;;;;;;5021324;28;20057;-66
2023/01/16 00:15:04;;;;;;;4.95;0.95;;;6.80;99.90;;;;;;5026986;28;20485;-67
2023/01/16 00:17:30;;;;;;;14.25;1.55;;;6.80;99.90;;;;;;5024640;28;20037;-68
2023/01/16 00:19:56;;;;;;;8.95;1.83;;;6.70;99.90;;;;;;5026988;28;20040;-69
2023/01/16 00:22:22;;;;;;;12.25;2.00;;;6.70;99.90;;;;;;5025317;28;20028;-68
2023/01/16 00:24:48;;;;;;;11.60;1.65;;;6.60;99.90;;;;;;5019013;28;20026;-68
2023/01/16 00:27:13;;;;;;;9.45;1.60;;;6.60;99.90;;;;;;5024788;28;20040;-69
2023/01/16 00:29:39;;;;;;;10.25;2.20;;;6.50;99.90;;;;;;5023431;28;20535;-68
2023/01/16 00:32:05;;;;;;;13.07;1.42;;;6.50;99.90;;;;;;5027311;28;20457;-70
2023/01/16 00:34:30;;;;;;;6.50;1.13;;;6.40;99.90;;;;;;5023510;28;20400;-71
2023/01/16 00:36:56;;;;;;;12.27;1.70;;;6.40;99.90;;;;;;5022745;28;20087;-70
2023/01/16 00:39:22;;;;;;;5.78;1.42;;;6.30;99.90;;;;;;5023190;28;20021;-70
2023/01/16 00:41:48;;;;;;;11.27;1.33;;;6.30;99.90;;;;;;5023322;28;20111;-71
2023/01/16 00:44:13;;;;;;;7.45;1.42;;;6.20;99.90;;;;;;5010757;28;20037;-72
2023/01/16 00:46:39;;;;;;;11.63;1.90;;;6.20;99.90;;;;;;5023541;28;20040;-72
2023/01/16 00:49:05;;;;;;;7.60;1.25;;;6.10;99.90;;;;;;5020898;28;20108;-71
2023/01/16 00:51:31;;;;;;;7.22;0.70;;;6.10;99.90;;;;;;5014324;28;20030;-71
2023/01/16 00:53:56;;;;;;;5.25;1.27;;;6.00;99.90;;;;;;5023294;28;20030;-71
2023/01/16 00:56:22;;;;;;;3.30;0.40;;;5.90;99.90;;;;;;5020759;28;20469;-70
2023/01/16 00:58:48;;;;;;;16.35;4.55;;;5.90;99.90;;;;;;5022219;28;20021;-71
2023/01/16 01:01:13;;;;;;;1.42;0.55;;;5.80;99.90;;;;;;5016064;28;20037;-72
2023/01/16 01:03:39;;;;;;;3.40;0.80;;;5.70;99.90;;;;;;5029264;28;20096;-73
2023/01/16 01:06:11;;;;;;;4.38;0.50;;;5.60;99.90;;;;;;5025867;28;20067;-73
2023/01/16 01:08:37;;;;;;;3.80;0.30;;;5.50;99.90;;;;;;5027016;28;20112;-71
2023/01/16 01:11:11;;;;;;;9.07;0.80;;;5.30;99.90;;;;;;5023985;28;20109;-74
2023/01/16 01:13:37;;;;;;;2.50;0.60;;;5.10;99.90;;;;;;5030543;28;20469;-73
2023/01/16 01:16:03;;;;;;;2.47;0.28;;;4.90;99.90;;;;;;5014784;28;20508;-74
2023/01/16 01:18:29;;;;;;;1.95;0.20;;;4.80;99.90;;;;;;5013067;28;20394;-72
2023/01/16 01:20:54;;;;;;;4.30;0.20;;;4.70;99.90;;;;;;5023042;28;20091;-76
2023/01/16 01:23:20;;;;;;;0.30;0.10;;;4.60;99.90;;;;;;5022498;28;20032;-74
2023/01/16 01:25:46;;;;;;;1.90;0.20;;;4.50;99.90;;;;;;5021908;28;20041;-74
2023/01/16 01:28:12;;;;;;;6.93;0.55;;;4.40;99.90;;;;;;5022344;28;20477;-73
2023/01/16 01:30:38;;;;;;;1.65;0.10;;;4.40;99.90;;;;;;5024927;28;20029;-73
2023/01/16 01:33:03;;;;;;;1.13;0.30;;;4.40;99.90;;;;;;5022956;28;20037;-73
2023/01/16 01:35:29;;;;;;;2.38;0.20;;;4.40;99.90;;;;;;5023031;28;20407;-73
2023/01/16 01:37:55;;;;;;;1.95;0.20;;;4.50;99.90;;;;;;5024721;28;20513;-72
2023/01/16 01:40:21;;;;;;;5.35;0.30;;;4.50;99.90;;;;;;5019862;28;20030;-73
2023/01/16 01:42:55;;;;;;;10.52;0.20;;;4.60;99.90;;;;;;5025948;28;20045;-73
2023/01/16 01:45:29;;;;;;;2.30;0.30;;;4.60;99.90;;;;;;5015426;28;20049;-72
2023/01/16 01:47:58;;;;;;;6.55;0.50;;;4.70;99.90;;;;;;5014561;28;20100;-72
2023/01/16 01:50:33;;;;;;;4.75;0.50;;;4.70;99.90;;;;;;5012528;28;20030;-72
2023/01/16 01:53:01;;;;;;;4.13;0.28;;;4.70;99.90;;;;;;5017772;28;20029;-73
2023/01/16 01:55:27;;;;;;;4.18;0.30;;;4.80;99.90;;;;;;5023274;28;20425;-73
2023/01/16 01:57:58;;;;;;;4.57;0.30;;;4.80;99.90;;;;;;5020213;28;20492;-74
2023/01/16 02:00:26;;;;;;;0.88;0.32;;;4.80;99.90;;;;;;5012758;28;20065;-74
2023/01/16 02:03:25;;;;;;;3.60;0.40;;;4.80;99.90;;;;;;5016642;28;20388;-73
2023/01/16 02:05:54;;;;;;;1.25;0.10;;;4.80;99.90;;;;;;5021755;28;20064;-73
2023/01/16 02:08:24;;;;;;;3.90;0.22;;;4.90;99.90;;;;;;5026282;28;20025;-73
2023/01/16 02:11:04;;;;;;;4.68;0.25;;;4.90;99.90;;;;;;5023202;28;20049;-73
2023/01/16 02:13:30;;;;;;;3.15;0.35;;;4.90;99.90;;;;;;5021212;28;20032;-75
2023/01/16 02:21:48;;;;;;;3.00;0.50;;;5.00;99.90;;;;;;5019104;28;20049;-74
2023/01/16 02:24:39;;;;;;;2.45;0.40;;;5.00;99.90;;;;;;5025193;28;20045;-74
2023/01/16 02:27:17;;;;;;;5.95;0.77;;;5.00;99.90;;;;;;5016622;28;20064;-74
2023/01/16 02:30:24;;;;;;;3.13;0.43;;;5.00;99.90;;;;;;5022646;28;20030;-74
2023/01/16 02:33:33;;;;;;;11.82;0.65;;;5.10;99.90;;;;;;5030838;28;20029;-74
2023/01/16 02:36:16;;;;;;;2.05;0.20;;;5.10;99.90;;;;;;5024804;28;20038;-75
2023/01/16 02:38:42;;;;;;;3.03;1.00;;;5.20;99.90;;;;;;5022038;28;20029;-76
2023/01/16 02:41:10;;;;;;;3.22;0.30;;;5.20;99.90;;;;;;5028313;28;20543;-61
2023/01/16 02:44:17;;;;;;;3.70;0.30;;;5.20;99.90;;;;;;5023978;28;20478;-75
2023/01/16 02:46:51;;;;;;;3.22;0.38;;;5.20;99.90;;;;;;5006480;28;20033;-74
2023/01/16 02:49:28;;;;;;;1.25;0.75;;;5.20;99.90;;;;;;4998110;28;20038;-74
2023/01/16 02:52:21;;;;;;;7.28;0.57;;;5.20;99.90;;;;;;4989575;28;20025;-73
2023/01/16 02:54:55;;;;;;;2.88;0.20;;;5.30;99.90;;;;;;5006170;28;20030;-75
2023/01/16 02:57:23;;;;;;;5.53;0.40;;;5.30;99.90;;;;;;4998830;28;20022;-74
2023/01/16 02:59:50;;;;;;;4.68;0.55;;;5.30;99.90;;;;;;4988881;28;20512;-75
2023/01/16 03:02:16;;;;;;;3.95;0.60;;;5.30;99.90;;;;;;4998305;28;20061;-74
2023/01/16 03:04:50;;;;;;;7.10;0.50;;;5.30;99.90;;;;;;5004950;28;20026;-74
2023/01/16 03:07:57;;;;;;;1.85;0.45;;;5.40;99.90;;;;;;5002286;28;20455;-73
2023/01/16 03:10:23;;;;;;;7.13;0.68;;;5.40;99.90;;;;;;4946498;28;20043;-73
2023/01/16 03:13:24;;;;;;;5.50;0.60;;;5.30;99.90;;;;;;4945737;29;20038;-74
2023/01/16 03:16:25;;;;;;;6.78;0.50;;;5.40;99.90;;;;;;4895149;29;20135;-73
2023/01/16 03:19:00;;;;;;;7.05;0.68;;;5.30;99.90;;;;;;4892333;29;20232;-73
2023/01/16 03:21:56;;;;;;;5.43;0.43;;;5.40;99.90;;;;;;4920684;29;20070;-72
2023/01/16 03:24:35;;;;;;;3.28;0.50;;;5.40;99.90;;;;;;4927738;29;20032;-71
2023/01/16 03:27:26;;;;;;;9.65;0.80;;;5.30;99.90;;;;;;4925779;29;20039;-72
2023/01/16 03:30:05;;;;;;;3.70;0.52;;;5.40;99.90;;;;;;4931269;29;20122;-72
2023/01/16 03:32:35;;;;;;;3.58;0.73;;;5.40;99.90;;;;;;4925001;29;20043;-72
2023/01/16 03:35:13;;;;;;;5.65;0.45;;;5.40;99.90;;;;;;4927277;29;20043;-72
2023/01/16 03:37:46;;;;;;;5.00;0.50;;;5.40;99.90;;;;;;4923015;29;20138;-72
2023/01/16 03:40:16;;;;;;;4.95;0.30;;;5.40;99.90;;;;;;4932627;28;20031;-72
2023/01/16 03:42:49;;;;;;;7.13;1.10;;;5.40;99.90;;;;;;4969354;28;20126;-72
2023/01/16 03:45:40;;;;;;;3.35;0.28;;;5.40;99.90;;;;;;4972998;28;20089;-74
2023/01/16 03:48:30;;;;;;;3.92;0.40;;;5.40;99.90;;;;;;4950526;28;20088;-73
2023/01/16 03:51:01;;;;;;;7.20;0.50;;;5.30;99.90;;;;;;5017331;28;20475;-72
2023/01/16 03:53:34;;;;;;;3.97;0.40;;;5.30;99.90;;;;;;5018524;28;20025;-73
2023/01/16 03:56:18;;;;;;;3.60;0.40;;;5.30;99.90;;;;;;5041802;28;20084;-72
2023/01/16 03:58:47;;;;;;;5.72;0.47;;;5.20;99.90;;;;;;5022720;28;20473;-72
2023/01/16 04:01:26;;;;;;;3.95;0.30;;;5.20;99.90;;;;;;5009254;28;20052;-72
2023/01/16 04:04:03;;;;;;;3.80;0.20;;;5.20;99.90;;;;;;5017967;28;20033;-73
2023/01/16 04:06:31;;;;;;;7.05;0.47;;;5.20;99.90;;;;;;5016773;28;20060;-74
2023/01/16 04:09:00;;;;;;;1.02;0.10;;;5.10;99.90;;;;;;5028981;28;20485;-74
2023/01/16 04:11:26;;;;;;;2.20;0.10;;;4.90;99.90;;;;;;5022599;28;20068;-73
2023/01/16 04:13:56;;;;;;;2.38;0.20;;;4.80;99.90;;;;;;5021208;28;20481;-73
2023/01/16 04:16:23;;;;;;;2.38;0.10;;;4.70;99.90;;;;;;5023467;28;20104;-73
2023/01/16 04:18:52;;;;;;;2.45;0.88;;;4.60;99.90;;;;;;5015601;28;20482;-72
2023/01/16 04:21:18;;;;;;;2.70;0.20;;;4.60;99.90;;;;;;5020133;28;20505;-73
2023/01/16 04:23:44;;;;;;;0.00;0.00;;;4.50;99.90;;;;;;5012699;28;20030;-73
2023/01/16 04:26:10;;;;;;;0.35;0.10;;;4.40;99.90;;;;;;5016402;28;20044;-76
2023/01/16 04:28:36;;;;;;;0.40;0.10;;;4.40;99.90;;;;;;5028977;28;20029;-74
2023/01/16 04:31:01;;;;;;;1.05;0.10;;;4.30;99.90;;;;;;5017102;28;20037;-75
2023/01/16 04:33:27;;;;;;;1.45;0.03;;;4.20;99.90;;;;;;5021984;28;20030;-74
2023/01/16 04:35:53;;;;;;;0.38;0.10;;;4.20;99.90;;;;;;5011425;28;20032;-74
2023/01/16 04:38:19;;;;;;;1.23;0.00;;;4.00;99.90;;;;;;5018926;28;20040;-75
2023/01/16 04:40:44;;;;;;;1.27;0.10;;;3.90;99.90;;;;;;5017501;28;20034;-75
2023/01/16 04:43:10;;;;;;;0.20;0.00;;;3.80;99.90;;;;;;5024973;23;20490;-77
2023/01/16 04:45:36;;;;;;;1.95;0.20;;;3.60;99.90;;;;;;5024295;28;20138;-77
2023/01/16 04:48:02;;;;;;;0.00;0.00;;;3.50;99.90;;;;;;5022971;28;20055;-77
2023/01/16 04:50:27;;;;;;;0.00;0.00;;;3.40;99.90;;;;;;5021348;28;20061;-78
2023/01/16 04:52:54;;;;;;;0.22;0.13;;;3.30;99.90;;;;;;5022584;28;20489;-80
2023/01/16 04:55:20;;;;;;;0.00;0.00;;;3.20;99.90;;;;;;5015806;28;20120;-80
2023/01/16 04:57:46;;;;;;;0.35;0.00;;;3.20;99.90;;;;;;5016011;28;20029;-76
2023/01/16 05:00:12;;;;;;;0.20;0.10;;;3.20;99.90;;;;;;5012561;28;20129;-78
2023/01/16 05:02:38;;;;;;;1.90;0.08;;;3.20;99.90;;;;;;5022186;28;20025;-79
2023/01/16 05:05:04;;;;;;;0.10;0.08;;;3.20;99.90;;;;;;5020521;28;20155;-77
2023/01/16 05:07:30;;;;;;;0.28;0.05;;;3.20;99.90;;;;;;5026253;28;20029;-79
2023/01/16 05:09:56;;;;;;;0.40;0.00;;;3.20;99.90;;;;;;5028302;28;20124;-79
2023/01/16 05:12:22;;;;;;;0.00;0.00;;;3.20;99.90;;;;;;5021851;28;20120;-79
2023/01/16 05:14:48;;;;;;;0.10;0.00;;;3.20;99.90;;;;;;5023976;28;20131;-78
2023/01/16 05:17:14;;;;;;;0.22;0.00;;;3.20;99.90;;;;;;5014642;28;20041;-76
2023/01/16 05:19:41;;;;;;;1.67;0.00;;;3.20;99.90;;;;;;5021887;28;20061;-78
2023/01/16 05:22:07;;;;;;;0.88;0.08;;;3.20;99.90;;;;;;5020803;28;20481;-78
2023/01/16 05:24:32;;;;;;;0.20;0.00;;;3.10;99.90;;;;;;5025619;28;20025;-77
2023/01/16 05:26:58;;;;;;;0.22;0.10;;;3.10;99.90;;;;;;5025259;28;20040;-79
2023/01/16 05:29:24;;;;;;;0.00;0.00;;;3.10;99.90;;;;;;5021180;28;20026;-80
2023/01/16 05:31:50;;;;;;;0.52;0.52;;;3.10;99.90;;;;;;5024026;28;20029;-80
2023/01/16 05:34:15;;;;;;;0.10;0.00;;;3.00;99.90;;;;;;5027378;28;20045;-81
2023/01/16 05:36:41;;;;;;;0.38;0.08;;;3.00;99.90;;;;;;5027914;28;20018;-77
2023/01/16 05:39:07;;;;;;;0.00;0.00;;;2.90;99.90;;;;;;5024411;28;20516;-77
2023/01/16 05:41:33;;;;;;;0.28;0.00;;;2.80;99.90;;;;;;5025823;28;20045;-78
2023/01/16 05:43:59;;;;;;;0.65;0.10;;;2.80;99.90;;;;;;5028033;28;20401;-80
2023/01/16 05:46:25;;;;;;;0.10;0.00;;;2.90;99.90;;;;;;5015518;28;20481;-79
2023/01/16 05:48:51;;;;;;;0.00;0.00;;;3.00;99.90;;;;;;5028259;28;20033;-78
2023/01/16 05:51:17;;;;;;;0.10;0.00;;;3.10;99.90;;;;;;5021105;28;20029;-79
2023/01/16 05:53:48;;;;;;;1.80;0.20;;;3.10;99.90;;;;;;5028283;28;20033;-80
2023/01/16 05:56:22;;;;;;;0.10;0.00;;;3.10;99.90;;;;;;5017642;28;20060;-77
2023/01/16 05:58:47;;;;;;;0.00;0.00;;;3.10;99.90;;;;;;5019855;28;20018;-76
2023/01/16 06:01:13;;;;;;;0.30;0.00;;;3.00;99.90;;;;;;5024895;28;20125;-76
2023/01/16 06:03:39;;;;;;;0.08;0.08;;;3.10;99.90;;;;;;5035371;28;20488;-76
2023/01/16 06:06:05;;;;;;;0.10;0.00;;;3.10;99.90;;;;;;5028097;28;20041;-75
2023/01/16 06:08:31;;;;;;;0.68;0.20;;;3.20;99.90;;;;;;5027881;28;20024;-76
2023/01/16 06:10:58;;;;;;;0.25;0.10;;;3.20;99.90;;;;;;5030498;28;20112;-75
2023/01/16 06:13:23;;;;;;;0.00;0.00;;;3.20;99.90;;;;;;5023380;28;20028;-76
2023/01/16 06:15:49;;;;;;;0.20;0.10;;;3.20;99.90;;;;;;5032504;28;20029;-75
2023/01/16 06:18:16;;;;;;;0.05;0.05;;;3.10;99.90;;;;;;5025571;28;20409;-75
2023/01/16 06:20:43;;;;;;;0.63;0.00;;;3.10;99.90;;;;;;5022716;28;20398;-75
2023/01/16 06:23:08;;;;;;;0.08;0.00;;;3.10;99.90;;;;;;5028878;28;20441;-76
2023/01/16 06:25:34;;;;;;;0.03;0.03;;;3.10;99.90;;;;;;5032490;28;20053;-75
2023/01/16 06:28:00;;;;;;;0.00;0.00;;;3.10;99.90;;;;;;5025260;28;20488;-76
2023/01/16 06:30:26;;;;;;;0.13;0.10;;;3.00;99.90;;;;;;5021275;28;20060;-75
2023/01/16 06:32:52;;;;;;;0.08;0.03;;;2.90;99.90;;;;;;5027998;28;20029;-76
2023/01/16 06:35:19;;;;;;;1.50;0.30;;;2.90;99.90;;;;;;5023467;28;20034;-75
2023/01/16 06:37:48;;;;;;;1.30;0.10;;;2.90;99.90;;;;;;5029563;28;20381;-75
2023/01/16 06:40:13;;;;;;;0.10;0.10;;;2.90;99.90;;;;;;5013138;28;20061;-75
2023/01/16 06:42:39;;;;;;;0.30;0.22;;;2.90;99.90;;;;;;5026478;28;20393;-74
2023/01/16 06:45:05;;;;;;;0.70;0.15;;;2.90;99.90;;;;;;5024942;28;20088;-75
2023/01/16 06:47:31;;;;;;;0.50;0.30;;;2.90;99.90;;;;;;5026436;28;20025;-74
2023/01/16 06:49:57;;;;;;;1.38;0.50;;;2.80;99.90;;;;;;5030690;28;20035;-75
2023/01/16 06:52:24;;;;;;;0.10;0.10;;;2.80;99.90;;;;;;5020655;28;20029;-74
2023/01/16 06:54:50;;;;;;;0.43;0.20;;;2.80;99.90;;;;;;5028916;28;20037;-76
2023/01/16 06:57:16;;;;;;;0.73;0.30;;;2.90;99.90;;;;;;5024063;28;20049;-73
2023/01/16 06:59:41;;;;;;;0.25;0.15;;;2.80;99.90;;;;;;5028712;28;20109;-76
2023/01/16 07:02:09;;;;;;;0.40;0.17;;;2.90;99.90;;;;;;5027838;28;20112;-75
2023/01/16 07:04:38;;;;;;;0.00;0.00;;;2.90;99.90;;;;;;5029730;28;20457;-76
2023/01/16 07:07:03;;;;;;;0.13;0.10;;;2.90;99.90;;;;;;5025392;28;20052;-75
2023/01/16 07:09:30;;;;;;;0.10;0.10;;;2.90;99.90;;;;;;5030435;28;20385;-74
2023/01/16 07:11:56;;;;;;;0.65;0.10;;;2.90;99.90;;;;;;5018638;28;20026;-75
2023/01/16 07:22:40;;;;;;;1.67;0.10;;;3.00;99.90;;;;;;5023213;28;20037;-73
2023/01/16 07:25:22;;;;;;;0.17;0.10;;;3.00;99.90;;;;;;5028115;28;20025;-75
2023/01/16 07:27:49;;;;;;;0.10;0.05;;;3.00;99.90;;;;;;5027793;28;20033;-74
2023/01/16 07:30:17;;;;;;;0.00;0.00;;;3.00;99.90;;;;;;5028624;28;20474;-74
2023/01/16 07:32:43;;;;;;;0.60;0.20;;;3.00;99.90;;;;;;5029171;28;20485;-76
2023/01/16 07:35:09;;;;;;;0.60;0.10;;;3.10;99.90;;;;;;5030732;28;20033;-75
2023/01/16 07:37:35;;;;;;;0.20;0.10;;;3.10;99.90;;;;;;5029737;28;20447;-73
2023/01/16 07:40:01;;;;;;;0.38;0.00;;;3.10;99.90;;;;;;5030504;28;20561;-73
2023/01/16 07:42:27;;;;;;;0.85;0.10;;;3.10;99.90;;;;;;5030504;28;20481;-73
2023/01/16 07:44:52;;;;;;;1.42;0.32;;;3.10;99.90;;;;;;5034187;28;20453;-75
2023/01/16 07:47:18;;;;;;;0.20;0.20;;;3.10;99.90;;;;;;5030794;28;20028;-75
2023/01/16 07:49:44;;;;;;;0.70;0.20;;;3.10;99.90;;;;;;5027553;28;20108;-73
2023/01/16 07:52:10;;;;;;;0.45;0.20;;;3.10;99.90;;;;;;5025188;28;20179;-74
2023/01/16 07:54:39;;;;;;;0.15;0.15;;;3.10;99.90;;;;;;5028543;28;20022;-73
2023/01/16 07:57:04;;;;;;;0.00;0.00;;;3.10;99.90;;;;;;5024832;28;20408;-73
2023/01/16 07:59:30;;;;;;;0.25;0.15;;;3.10;99.90;;;;;;5030290;28;20089;-74
2023/01/16 08:01:56;;;;;;;1.40;0.10;;;3.10;99.90;;;;;;5028457;28;20473;-73
2023/01/16 08:04:22;;;;;;;2.10;0.60;;;3.10;99.90;;;;;;5027593;28;20075;-74
2023/01/16 08:06:48;;;;;;;0.30;0.30;;;3.10;99.90;;;;;;5029342;28;20029;-73
2023/01/16 08:09:14;;;;;;;1.10;0.93;;;3.20;99.90;;;;;;5028120;28;20029;-73
2023/01/16 08:11:40;;;;;;;0.50;0.32;;;3.20;99.90;;;;;;5023260;28;20438;-74
2023/01/16 08:14:07;;;;;;;0.70;0.65;;;3.20;99.90;;;;;;5022130;28;20026;-77
2023/01/16 08:16:33;;;;;;;0.82;0.60;;;3.30;99.90;;;;;;5029669;28;20469;-75
2023/01/16 08:19:03;;;;;;;0.65;0.60;;;3.30;99.90;;;;;;5029860;28;20033;-72
2023/01/16 08:21:32;;;;;;;4.88;1.15;;;3.40;99.90;;;;;;5025212;28;20041;-75
2023/01/16 08:23:57;;;;;;;2.42;0.80;;;3.60;99.90;;;;;;5022576;28;20017;-73
2023/01/16 08:26:23;;;;;;;1.17;0.75;;;3.60;99.90;;;;;;5023299;28;20342;-75
2023/01/16 08:28:49;;;;;;;4.55;1.10;;;3.70;99.90;;;;;;5023584;28;20025;-73
2023/01/16 08:31:17;;;;;;;2.35;1.15;;;3.80;99.90;;;;;;5023463;28;20454;-74
2023/01/16 08:33:43;;;;;;;1.92;1.27;;;3.90;99.90;;;;;;5027952;28;20041;-74
2023/01/16 08:36:11;;;;;;;4.00;1.50;;;3.90;99.90;;;;;;5018754;28;20159;-73
2023/01/16 08:38:40;;;;;;;3.28;1.45;;;4.00;99.90;;;;;;5028291;28;20155;-73
2023/01/16 08:51:21;;;;;;;3.78;2.05;;;4.00;99.90;;;;;;5025702;28;20489;-74
2023/01/16 08:52:22;;;;;;;9.20;2.50;;;4.30;99.90;;;;;;4963744;28;20033;-75
2023/01/16 08:54:48;;;;;;;10.82;3.28;;;4.30;99.90;;;;;;4965518;28;20035;-76
2023/01/16 08:57:14;;;;;;;9.88;3.55;;;4.30;99.90;;;;;;4978743;28;20033;-74
2023/01/16 08:59:40;;;;;;;7.72;3.30;;;4.30;99.90;;;;;;4961773;28;20046;-73
2023/01/16 09:02:08;;;;;;;17.02;3.85;;;4.30;99.90;;;;;;4960631;28;20155;-78
2023/01/16 09:04:35;;;;;;;10.70;3.75;;;4.30;99.90;;;;;;4974630;28;20122;-77
2023/01/16 09:07:01;;;;;;;10.45;4.22;;;4.30;99.90;;;;;;4954655;28;20038;-75
2023/01/16 09:09:29;;;;;;;12.38;3.75;;;4.40;99.90;;;;;;4968387;28;20070;-78
2023/01/16 09:14:40;;;;;;;15.55;2.70;;;4.40;99.90;;;;;;4962898;28;20054;-74
2023/01/16 09:17:06;;;;;;;7.90;2.75;;;4.40;99.90;;;;;;4953710;28;20023;-76
2023/01/16 09:19:32;;;;;;;8.80;2.15;;;4.40;99.90;;;;;;4966866;28;20655;-75
2023/01/16 09:21:58;;;;;;;14.70;2.75;;;4.40;99.90;;;;;;4968460;28;20137;-74
2023/01/16 09:24:24;;;;;;;15.35;2.83;;;4.40;99.90;;;;;;4972663;28;20053;-76
2023/01/16 09:26:50;;;;;;;9.45;2.17;;;4.40;99.90;;;;;;4970123;28;20100;-63
2023/01/16 09:29:16;;;;;;;8.48;1.90;;;4.50;99.90;;;;;;5016955;28;20060;-76
2023/01/16 09:31:42;;;;;;;8.10;2.67;;;4.40;99.90;;;;;;5023425;28;20014;-77
2023/01/16 09:34:08;;;;;;;10.93;2.30;;;4.40;99.90;;;;;;5020547;28;20109;-75
2023/01/16 09:36:33;;;;;;;7.30;2.95;;;4.40;99.90;;;;;;5024957;28;20043;-76
2023/01/16 09:38:59;;;;;;;6.35;2.53;;;4.40;99.90;;;;;;5020720;28;20401;-77
2023/01/16 09:44:14;;;;;;;9.70;2.70;;;4.40;99.90;;;;;;5022111;28;20129;-76
2023/01/16 09:46:47;;;;;;;7.22;1.80;;;4.40;99.90;;;;;;5025497;28;20068;-75
2023/01/16 09:49:23;;;;;;;7.05;2.60;;;4.40;99.90;;;;;;5031011;28;20029;-74
2023/01/16 10:00:35;;;;;;;7.22;2.30;;;4.40;99.90;;;;;;5034455;28;20547;-75
2023/01/16 10:03:01;;;;;;;6.03;2.45;;;4.40;99.90;;;;;;5038371;28;20034;-71
2023/01/16 10:06:05;;;;;;;8.23;2.88;;;4.40;99.90;;;;;;5037987;28;20066;-73
2023/01/16 10:09:07;;;;;;;9.75;2.20;;;4.40;99.90;;;;;;5033849;28;20033;-74
2023/01/16 10:11:53;;;;;;;7.72;2.58;;;4.40;99.90;;;;;;5022006;28;20044;-74
2023/01/16 10:14:58;;;;;;;11.20;3.17;;;4.40;99.90;;;;;;5011345;28;20571;-74
2023/01/16 10:17:27;;;;;;;9.18;3.10;;;4.50;99.90;;;;;;4988734;28;20108;-76
2023/01/16 10:20:25;;;;;;;8.07;2.22;;;4.50;99.90;;;;;;4995218;28;20050;-72
2023/01/16 10:23:02;;;;;;;4.97;2.53;;;4.50;99.90;;;;;;4916790;29;20115;-74
2023/01/16 10:25:52;;;;;;;9.25;2.30;;;4.50;99.90;;;;;;4919127;29;20065;-74
2023/01/16 10:28:27;;;;;;;6.45;1.95;;;4.60;99.90;;;;;;4907348;29;20039;-74
2023/01/16 10:31:05;;;;;;;7.90;2.30;;;4.60;99.90;;;;;;4913246;29;20058;-73
2023/01/16 10:33:57;;;;;;;9.55;2.45;;;4.60;99.90;;;;;;4910955;29;20534;-73
2023/01/16 10:36:30;;;;;;;7.30;2.78;;;4.60;99.90;;;;;;4856918;29;20076;-74
2023/01/16 10:38:58;;;;;;;5.15;2.40;;;4.60;99.90;;;;;;4856864;29;20464;-71
2023/01/16 10:50:03;;;;;;;11.77;3.60;;;4.70;99.90;;;;;;4848084;29;20089;-74
2023/01/16 10:52:30;;;;;;;6.10;2.42;;;4.80;99.90;;;;;;4845899;29;20044;-72
2023/01/16 10:54:58;;;;;;;5.68;2.60;;;4.70;99.90;;;;;;4891656;29;20440;-73
2023/01/16 10:57:24;;;;;;;7.40;2.88;;;4.70;99.90;;;;;;4888864;29;20149;-74
2023/01/16 10:59:54;;;;;;;7.80;3.03;;;4.70;99.90;;;;;;4920709;29;20047;-73
2023/01/16 11:02:33;;;;;;;7.45;3.15;;;4.60;99.90;;;;;;4947747;28;20040;-73
2023/01/16 11:05:01;;;;;;;6.50;3.05;;;4.70;99.90;;;;;;4944807;29;20487;-72
2023/01/16 11:07:29;;;;;;;4.25;2.53;;;4.70;99.90;;;;;;4949398;28;20139;-75
2023/01/16 11:09:56;;;;;;;7.90;3.00;;;4.70;99.90;;;;;;4946371;28;20436;-74
2023/01/16 11:18:30;;;;;;;4.20;2.60;;;4.70;99.90;;;;;;5032243;28;19924;-73
2023/01/16 11:21:00;;;;;;;6.30;2.78;;;4.60;99.90;;;;;;5021983;28;20034;-73
2023/01/16 11:23:33;;;;;;;8.43;3.63;;;4.60;99.90;;;;;;5028959;28;20135;-72
2023/01/16 11:25:59;;;;;;;5.82;3.33;;;4.60;99.90;;;;;;5025484;28;20117;-74
2023/01/16 11:28:28;;;;;;;5.07;3.42;;;4.60;99.90;;;;;;5025487;28;20176;-76
2023/01/16 11:31:11;;;;;;;5.43;3.15;;;4.50;99.90;;;;;;5023327;28;20082;-72
2023/01/16 11:33:49;;;;;;;8.55;3.90;;;4.50;99.90;;;;;;5018076;28;20026;-70
2023/01/16 11:36:19;;;;;;;7.00;3.47;;;4.50;99.90;;;;;;5017441;28;20033;-70
2023/01/16 11:38:47;;;;;;;9.45;3.95;;;4.60;99.90;;;;;;5021770;28;20025;-68
2023/01/16 11:41:23;;;;;;;7.18;3.58;;;4.60;99.90;;;;;;5024467;28;20038;-70
2023/01/16 11:47:00;;;;;;;5.50;3.83;;;4.70;99.90;;;;;;5023592;28;21265;-68
2023/01/16 11:49:47;;;;;;;6.50;3.60;;;4.80;99.90;;;;;;5025746;28;20025;-69
2023/01/16 11:52:26;;;;;;;10.38;4.07;;;4.90;99.90;;;;;;5016905;28;20022;-68
2023/01/16 11:55:03;;;;;;;9.95;3.97;;;4.90;99.90;;;;;;5025504;28;20029;-70
2023/01/16 11:57:58;;;;;;;5.05;3.42;;;5.00;99.90;;;;;;5023138;28;20033;-69
2023/01/16 12:00:43;;;;;;;7.15;3.67;;;5.00;99.90;;;;;;5005171;28;20049;-68
2023/01/16 12:03:38;;;;;;;6.95;4.00;;;4.90;99.90;;;;;;5012347;28;20060;-69
2023/01/16 12:06:09;;;;;;;6.43;3.90;;;5.00;99.90;;;;;;5017660;28;20132;-69
2023/01/16 12:09:14;;;;;;;4.88;3.45;;;5.00;99.90;;;;;;5020894;28;20022;-70
2023/01/16 12:14:17;;;;;;;7.93;3.33;;;5.00;99.90;;;;;;4985546;28;20033;-70
2023/01/16 12:14:53;;;;;;;4.60;3.45;;;5.10;99.90;;;;;;5020250;28;20041;-69
2023/01/16 12:17:22;;;;;;;6.53;3.83;;;5.10;99.90;;;;;;5020468;28;20036;-69
2023/01/16 12:20:13;;;;;;;4.82;3.38;;;5.10;99.90;;;;;;5020703;28;20041;-68
2023/01/16 12:23:05;;;;;;;5.13;3.60;;;5.20;99.90;;;;;;5018905;28;20068;-69
2023/01/16 12:25:37;;;;;;;4.55;3.53;;;5.20;99.90;;;;;;5021258;28;20354;-70
2023/01/16 12:28:08;;;;;;;6.32;3.70;;;5.30;99.90;;;;;;5022279;28;20033;-68
2023/01/16 12:30:42;;;;;;;6.18;3.70;;;5.40;99.90;;;;;;5022371;28;20040;-70
2023/01/16 12:33:32;;;;;;;5.45;3.53;;;5.60;99.90;;;;;;5023527;28;20108;-69
2023/01/16 12:35:58;;;;;;;6.53;3.72;;;5.60;99.90;;;;;;5023333;28;20017;-71
2023/01/16 12:38:33;;;;;;;4.88;3.33;;;5.60;99.90;;;;;;5018135;28;20026;-71
2023/01/16 12:44:14;;;;;;;8.23;3.75;;;6.00;99.90;;;;;;5023962;28;20417;-71
2023/01/16 12:47:09;;;;;;;4.25;3.25;;;5.80;99.90;;;;;;5022231;28;20470;-69
2023/01/16 12:50:00;;;;;;;5.05;3.83;;;5.80;99.90;;;;;;5022531;28;20029;-70
2023/01/16 12:53:12;;;;;;;4.30;3.58;;;5.60;99.90;;;;;;5016926;28;20029;-71
2023/01/16 12:55:57;;;;;;;7.45;4.78;;;5.60;99.90;;;;;;5014713;28;20029;-70
2023/01/16 12:58:30;;;;;;;6.43;4.13;;;5.70;99.90;;;;;;5020807;28;20396;-70
2023/01/16 13:00:59;;;;;;;6.85;3.80;;;5.80;99.90;;;;;;5026206;28;20041;-70
2023/01/16 13:04:11;;;;;;;12.95;3.97;;;6.40;99.90;;;;;;5022669;28;20123;-68
2023/01/16 13:06:47;;;;;;;4.53;3.17;;;7.10;99.90;;;;;;5021911;28;20041;-69
2023/01/16 13:09:41;;;;;;;5.63;3.67;;;7.40;99.90;;;;;;5038199;28;20029;-70
2023/01/16 13:15:21;;;;;;;8.55;3.10;;;8.50;99.90;;;;;;5020063;28;20095;-70
2023/01/16 13:17:56;;;;;;;7.18;3.20;;;8.60;99.90;;;;;;5025034;28;20060;-69
2023/01/16 13:20:23;;;;;;;5.43;2.85;;;8.60;99.90;;;;;;5021616;28;20043;-69
2023/01/16 13:23:01;;;;;;;6.40;2.80;;;8.00;99.90;;;;;;5022902;28;20037;-67
2023/01/16 13:25:33;;;;;;;7.40;3.50;;;7.90;99.90;;;;;;5022053;28;20029;-68
2023/01/16 13:28:16;;;;;;;9.05;3.55;;;7.90;99.90;;;;;;5024026;28;20061;-69
2023/01/16 13:30:42;;;;;;;4.05;2.97;;;7.80;99.90;;;;;;5035902;28;20052;-69
2023/01/16 13:33:15;;;;;;;7.28;3.33;;;7.70;99.90;;;;;;5022231;28;20121;-69
2023/01/16 13:35:49;;;;;;;4.30;3.00;;;7.60;99.90;;;;;;5021153;28;20421;-69
2023/01/16 13:38:37;;;;;;;6.43;2.70;;;7.30;99.90;;;;;;5019889;28;20034;-69
2023/01/16 13:41:15;;;;;;;5.28;2.88;;;7.20;99.90;;;;;;5021108;28;20041;-67
2023/01/16 13:46:42;;;;;;;9.10;3.63;;;8.10;99.90;;;;;;5018257;28;20045;-69
2023/01/16 13:49:20;;;;;;;5.95;3.17;;;8.10;99.90;;;;;;5015726;28;20038;-68
2023/01/16 13:51:48;;;;;;;7.43;4.10;;;8.20;99.90;;;;;;5022868;28;20026;-69
2023/01/16 13:54:23;;;;;;;7.20;4.00;;;8.50;99.90;;;;;;5016395;28;20551;-69
2023/01/16 13:57:08;;;;;;;5.53;3.05;;;8.60;99.90;;;;;;5021306;28;20037;-71
2023/01/16 13:59:33;;;;;;;4.65;2.97;;;8.80;99.90;;;;;;5020337;28;20060;-69
2023/01/16 14:01:59;;;;;;;5.38;3.65;;;8.50;99.90;;;;;;5021875;28;20473;-69
2023/01/16 14:04:31;;;;;;;4.70;3.13;;;8.40;99.90;;;;;;5014948;28;20105;-69
2023/01/16 14:10:06;;;;;;;4.18;2.88;;;8.80;99.90;;;;;;5017150;28;20183;-70
2023/01/16 14:12:34;;;;;;;4.90;3.00;;;8.80;99.90;;;;;;5014040;28;20029;-69
2023/01/16 14:18:02;;;;;;;4.95;2.42;;;8.40;99.90;;;;;;5021951;28;20044;-69
2023/01/16 14:20:43;;;;;;;3.22;2.30;;;8.70;99.90;;;;;;5025253;28;20133;-68
2023/01/16 14:26:36;;;;;;;3.47;2.13;;;8.50;99.90;;;;;;5020976;28;20115;-68
2023/01/16 14:29:18;;;;;;;4.07;2.63;;;8.70;99.90;;;;;;5026087;28;20029;-67
2023/01/16 14:32:08;;;;;;;3.42;2.58;;;7.90;99.90;;;;;;5022372;28;20528;-68